Time;durP1;ratioP1;P1;durP2;ratioP2;P2;SDS_P1;SDS_P2;PMS_P1;PMS_P2;Temp;Humidity;BMP_temperature;BMP_pressure;BME280_temperature;BME280_humidity;BME280_pressure;Samples;Min_cycle;Max_cycle;Signal;HPM_P1;HPM_P2
2022/09/21 00:01:26;;;;;;;3.42;1.80;;;12.90;63.00;;;;;;5093827;28;20044;-52
2022/09/21 00:03:55;;;;;;;2.92;1.50;;;12.90;63.20;;;;;;5098650;28;20047;-54
2022/09/21 00:06:23;;;;;;;4.13;1.40;;;12.90;63.20;;;;;;5080576;28;20402;-55
2022/09/21 00:08:52;;;;;;;2.97;1.30;;;12.90;63.20;;;;;;5071986;28;20127;-51
2022/09/21 00:11:26;;;;;;;2.00;1.40;;;13.00;63.40;;;;;;5079449;28;20036;-51
2022/09/21 00:13:56;;;;;;;1.52;1.35;;;13.00;63.40;;;;;;5092490;28;20044;-51
2022/09/21 00:16:23;;;;;;;2.17;1.50;;;13.00;63.50;;;;;;5084344;28;20080;-54
2022/09/21 00:18:50;;;;;;;2.45;1.70;;;13.00;63.40;;;;;;5092595;28;20043;-51
2022/09/21 00:21:18;;;;;;;1.60;1.50;;;13.00;63.50;;;;;;5095164;28;20127;-52
2022/09/21 00:23:46;;;;;;;3.83;1.70;;;13.10;63.60;;;;;;5080632;28;20048;-53
2022/09/21 00:26:16;;;;;;;2.10;1.77;;;13.10;63.70;;;;;;5082929;28;20089;-53
2022/09/21 00:28:43;;;;;;;2.97;1.70;;;13.10;63.80;;;;;;5091636;28;20498;-53
2022/09/21 00:31:13;;;;;;;1.92;1.20;;;13.10;63.60;;;;;;5096300;28;20399;-51
2022/09/21 00:33:41;;;;;;;2.05;1.20;;;13.10;63.80;;;;;;5091988;28;20032;-50
2022/09/21 00:36:13;;;;;;;3.78;1.25;;;13.10;64.50;;;;;;5083570;28;20043;-55
2022/09/21 00:38:43;;;;;;;6.82;1.70;;;13.10;63.90;;;;;;5091985;28;20040;-54
2022/09/21 00:41:12;;;;;;;1.83;1.73;;;13.20;63.90;;;;;;5093575;28;20048;-51
2022/09/21 00:43:44;;;;;;;2.00;1.80;;;13.20;64.00;;;;;;5077109;28;20120;-51
2022/09/21 00:46:26;;;;;;;3.30;2.20;;;13.20;64.20;;;;;;5090263;28;20113;-54
2022/09/21 00:48:53;;;;;;;;;;;13.20;64.50;;;;;;5096753;28;20058;-53
2022/09/21 00:51:20;;;;;;;2.70;1.20;;;13.20;64.30;;;;;;5086500;28;19920;-53
2022/09/21 00:53:50;;;;;;;5.35;1.67;;;13.20;63.50;;;;;;5086618;28;20078;-53
2022/09/21 00:56:19;;;;;;;3.50;1.55;;;13.20;63.70;;;;;;5093538;28;20040;-54
2022/09/21 00:58:49;;;;;;;7.18;1.90;;;13.20;63.70;;;;;;5092518;28;20040;-54
2022/09/21 01:01:17;;;;;;;3.17;1.60;;;13.20;63.80;;;;;;5087646;28;20602;-53
2022/09/21 01:03:46;;;;;;;3.22;1.42;;;13.20;63.70;;;;;;5086410;28;20048;-55
2022/09/21 01:06:15;;;;;;;1.90;1.70;;;13.20;63.80;;;;;;5091600;28;20055;-53
2022/09/21 01:08:43;;;;;;;2.22;1.58;;;13.20;63.70;;;;;;5091050;28;20064;-50
2022/09/21 01:11:56;;;;;;;1.55;1.45;;;13.10;63.60;;;;;;5082607;28;20071;-53
2022/09/21 01:14:54;;;;;;;2.88;1.90;;;13.10;64.20;;;;;;5091472;28;20035;-51
2022/09/21 01:17:45;;;;;;;1.67;1.52;;;13.10;64.20;;;;;;5099145;28;20067;-50
2022/09/21 01:20:25;;;;;;;2.25;2.05;;;13.00;64.00;;;;;;5075614;28;20098;-53
2022/09/21 01:23:01;;;;;;;5.53;2.10;;;13.00;63.60;;;;;;5086380;28;20036;-52
2022/09/21 01:25:52;;;;;;;3.45;2.08;;;13.00;63.60;;;;;;5092085;28;20042;-54
2022/09/21 01:28:40;;;;;;;1.65;1.48;;;12.90;63.90;;;;;;5090938;28;20032;-54
2022/09/21 01:31:13;;;;;;;4.13;1.63;;;12.90;63.90;;;;;;5082539;28;20042;-52
2022/09/21 01:33:50;;;;;;;2.08;1.88;;;12.80;63.60;;;;;;5091318;28;20044;-55
2022/09/21 01:36:23;;;;;;;3.03;1.45;;;12.80;63.80;;;;;;5097396;28;20036;-54
2022/09/21 01:38:57;;;;;;;4.60;1.60;;;12.80;63.60;;;;;;5090940;28;20089;-55
2022/09/21 01:41:27;;;;;;;2.35;1.98;;;12.70;63.80;;;;;;5074445;28;20044;-53
2022/09/21 01:44:07;;;;;;;2.58;1.67;;;12.70;63.60;;;;;;5081158;28;20119;-54
2022/09/21 01:46:35;;;;;;;2.10;1.70;;;12.60;63.70;;;;;;5090683;28;20051;-50
2022/09/21 01:49:30;;;;;;;2.60;2.05;;;12.60;63.50;;;;;;5082617;28;20046;-54
2022/09/21 01:52:10;;;;;;;3.28;1.83;;;12.60;63.80;;;;;;5090862;28;20040;-52
2022/09/21 01:54:44;;;;;;;1.85;1.70;;;12.50;63.60;;;;;;5097961;28;20511;-52
2022/09/21 01:57:22;;;;;;;2.70;2.10;;;12.50;63.40;;;;;;5091240;28;20046;-54
2022/09/21 01:59:56;;;;;;;2.80;1.67;;;12.40;63.60;;;;;;5088239;28;20044;-51
2022/09/21 02:02:49;;;;;;;3.67;1.88;;;12.40;63.80;;;;;;5090718;28;20419;-53
2022/09/21 02:05:20;;;;;;;2.90;1.60;;;12.30;64.10;;;;;;5095488;28;20044;-53
2022/09/21 02:07:47;;;;;;;2.13;2.03;;;12.30;63.50;;;;;;5090580;28;20040;-53
2022/09/21 02:10:35;;;;;;;2.28;2.08;;;12.30;63.50;;;;;;5081783;28;20042;-52
2022/09/21 02:13:05;;;;;;;3.88;1.80;;;12.20;63.70;;;;;;5091886;28;20045;-54
2022/09/21 02:16:06;;;;;;;2.35;2.00;;;12.20;63.70;;;;;;5091103;28;20130;-51
2022/09/21 02:18:42;;;;;;;3.10;1.50;;;12.20;64.20;;;;;;5069545;28;20110;-53
2022/09/21 02:21:31;;;;;;;2.08;1.70;;;12.10;63.40;;;;;;5071835;28;20048;-54
2022/09/21 02:24:14;;;;;;;3.38;1.83;;;12.10;63.90;;;;;;5082709;28;20044;-51
2022/09/21 02:27:01;;;;;;;;;;;12.00;63.70;;;;;;5082055;28;20040;-50
2022/09/21 02:29:51;;;;;;;2.15;1.95;;;12.00;63.70;;;;;;5090731;28;19928;-53
2022/09/21 02:32:36;;;;;;;4.05;1.80;;;12.00;63.10;;;;;;5092961;28;20399;-53
2022/09/21 02:35:35;;;;;;;1.70;1.60;;;11.90;63.30;;;;;;5086075;28;20036;-52
2022/09/21 02:38:18;;;;;;;3.88;2.13;;;11.90;63.60;;;;;;5077590;28;20086;-50
2022/09/21 02:41:05;;;;;;;4.30;2.33;;;11.80;63.30;;;;;;5081937;28;20062;-51
2022/09/21 02:43:51;;;;;;;4.82;2.03;;;11.80;63.40;;;;;;5090662;28;20502;-50
2022/09/21 02:46:27;;;;;;;2.30;2.03;;;11.80;63.60;;;;;;5081614;28;20039;-50
2022/09/21 02:48:59;;;;;;;2.10;1.90;;;11.70;63.40;;;;;;5089982;28;20054;-50
2022/09/21 02:51:36;;;;;;;3.63;2.28;;;11.70;63.40;;;;;;5090237;28;20042;-51
2022/09/21 02:54:07;;;;;;;3.75;1.98;;;11.70;63.40;;;;;;5088577;28;20042;-50
2022/09/21 02:56:35;;;;;;;2.63;2.03;;;11.60;63.30;;;;;;5083163;28;20118;-49
2022/09/21 02:59:05;;;;;;;2.67;2.05;;;11.60;63.30;;;;;;5090389;28;20492;-50
2022/09/21 03:01:38;;;;;;;2.97;1.85;;;11.50;63.40;;;;;;5091456;28;20046;-50
2022/09/21 03:04:05;;;;;;;3.88;2.58;;;11.50;63.40;;;;;;5081309;28;20045;-53
2022/09/21 03:06:34;;;;;;;2.80;2.38;;;11.50;63.50;;;;;;5089777;28;20051;-53
2022/09/21 03:09:02;;;;;;;3.60;2.42;;;11.50;63.60;;;;;;5090990;28;20503;-50
2022/09/21 03:11:32;;;;;;;2.58;2.38;;;11.40;64.20;;;;;;5096914;28;20036;-52
2022/09/21 03:14:05;;;;;;;5.25;2.40;;;11.40;63.60;;;;;;5085177;28;20119;-52
2022/09/21 03:16:32;;;;;;;2.35;2.15;;;11.30;64.20;;;;;;5093343;28;20040;-53
2022/09/21 03:18:59;;;;;;;2.60;2.10;;;11.30;63.50;;;;;;5090015;28;20116;-52
2022/09/21 03:21:33;;;;;;;2.83;2.35;;;11.30;63.50;;;;;;5089001;28;20048;-52
2022/09/21 03:24:00;;;;;;;2.30;2.10;;;11.30;63.80;;;;;;5078944;28;20044;-50
2022/09/21 03:26:29;;;;;;;2.83;2.30;;;11.30;63.60;;;;;;5083334;28;20040;-51
2022/09/21 03:28:56;;;;;;;3.83;2.42;;;11.20;63.70;;;;;;5095612;28;20046;-51
2022/09/21 03:31:23;;;;;;;4.15;2.65;;;11.20;63.60;;;;;;5088779;28;20404;-50
2022/09/21 03:33:49;;;;;;;4.10;3.03;;;11.20;63.60;;;;;;5089006;28;20047;-49
2022/09/21 03:36:19;;;;;;;4.05;2.40;;;11.20;63.60;;;;;;5093273;28;20044;-52
2022/09/21 03:38:49;;;;;;;3.83;2.38;;;11.10;63.60;;;;;;5095502;28;20135;-50
2022/09/21 03:41:15;;;;;;;3.10;2.25;;;11.10;63.70;;;;;;5081035;28;20044;-53
2022/09/21 03:43:45;;;;;;;4.30;2.33;;;11.10;63.60;;;;;;5087821;28;20127;-51
2022/09/21 03:46:14;;;;;;;3.58;2.30;;;11.00;63.60;;;;;;5092932;28;20048;-54
2022/09/21 03:48:46;;;;;;;5.55;2.63;;;11.00;63.60;;;;;;5097839;28;20040;-50
2022/09/21 03:51:13;;;;;;;5.65;2.47;;;11.00;63.60;;;;;;5084016;28;20401;-50
2022/09/21 03:53:42;;;;;;;3.28;2.28;;;11.00;63.70;;;;;;5092711;28;20047;-51
2022/09/21 03:56:09;;;;;;;2.13;1.75;;;11.00;63.90;;;;;;5093452;28;20048;-51
2022/09/21 03:58:36;;;;;;;3.33;2.20;;;10.90;63.90;;;;;;5086904;28;20489;-52
2022/09/21 04:01:03;;;;;;;3.25;1.75;;;10.90;64.10;;;;;;5090607;28;20058;-54
2022/09/21 04:03:32;;;;;;;2.38;1.83;;;10.90;64.40;;;;;;5092617;28;20050;-50
2022/09/21 04:05:58;;;;;;;2.42;1.65;;;10.90;64.60;;;;;;5099867;28;20071;-50
2022/09/21 04:08:25;;;;;;;3.10;2.38;;;10.90;64.80;;;;;;5092174;28;20054;-50
2022/09/21 04:10:55;;;;;;;2.30;1.90;;;11.00;65.10;;;;;;5091120;28;20059;-49
2022/09/21 04:13:27;;;;;;;5.32;2.22;;;11.00;65.30;;;;;;5092799;28;20495;-53
2022/09/21 04:15:57;;;;;;;3.47;2.65;;;11.00;65.30;;;;;;5095957;28;20104;-51
2022/09/21 04:18:24;;;;;;;2.78;1.88;;;11.10;65.60;;;;;;5087008;28;20048;-52
2022/09/21 04:20:54;;;;;;;1.85;1.75;;;11.10;65.50;;;;;;5078538;28;20653;-55
2022/09/21 04:23:24;;;;;;;3.40;2.38;;;11.10;65.50;;;;;;5084543;28;20059;-52
2022/09/21 04:25:53;;;;;;;3.63;2.25;;;11.20;65.40;;;;;;5092285;28;20507;-53
2022/09/21 04:28:21;;;;;;;2.25;2.03;;;11.20;65.40;;;;;;5084029;28;20483;-52
2022/09/21 04:30:53;;;;;;;2.17;1.98;;;11.20;65.20;;;;;;5075861;28;20489;-51
2022/09/21 04:33:20;;;;;;;3.77;2.03;;;11.20;65.30;;;;;;5080779;28;20066;-53
2022/09/21 04:35:47;;;;;;;3.13;2.15;;;11.30;65.10;;;;;;5091177;28;20063;-49
2022/09/21 04:38:16;;;;;;;2.28;2.03;;;11.20;64.90;;;;;;5080339;28;20041;-52
2022/09/21 04:40:53;;;;;;;2.13;2.00;;;11.20;64.80;;;;;;5083433;28;20152;-54
2022/09/21 04:43:20;;;;;;;2.40;2.22;;;11.20;64.90;;;;;;5091989;28;20043;-51
2022/09/21 04:45:51;;;;;;;3.58;2.13;;;11.20;64.70;;;;;;5089827;28;20063;-51
2022/09/21 04:48:18;;;;;;;4.07;2.15;;;11.20;64.60;;;;;;5079762;28;20036;-53
2022/09/21 04:50:48;;;;;;;2.70;2.05;;;11.30;64.60;;;;;;5071184;28;20128;-52
2022/09/21 04:53:18;;;;;;;2.60;2.17;;;11.20;64.70;;;;;;5083534;28;20128;-53
2022/09/21 04:55:45;;;;;;;2.22;2.03;;;11.10;64.50;;;;;;5085796;28;20611;-51
2022/09/21 04:58:11;;;;;;;4.88;2.53;;;11.20;64.70;;;;;;5088473;28;20040;-50
2022/09/21 05:00:38;;;;;;;4.28;2.70;;;11.20;64.80;;;;;;5089012;28;20040;-53
2022/09/21 05:03:05;;;;;;;3.92;3.15;;;11.10;64.80;;;;;;5094532;28;20040;-53
2022/09/21 05:05:32;;;;;;;5.93;3.22;;;11.10;64.80;;;;;;5083262;28;20036;-52
2022/09/21 05:07:58;;;;;;;3.72;3.08;;;11.10;64.80;;;;;;5071408;28;20155;-50
2022/09/21 05:10:25;;;;;;;5.88;3.63;;;11.10;64.90;;;;;;5069330;28;20052;-54
2022/09/21 05:12:51;;;;;;;5.78;3.55;;;11.10;64.90;;;;;;5085628;28;20415;-50
2022/09/21 05:15:19;;;;;;;4.80;3.58;;;11.10;64.90;;;;;;5079279;28;20131;-51
2022/09/21 05:17:45;;;;;;;5.80;3.50;;;11.00;64.90;;;;;;5087985;28;20051;-52
2022/09/21 05:20:12;;;;;;;5.07;3.60;;;11.00;64.90;;;;;;5090607;28;20533;-51
2022/09/21 05:22:39;;;;;;;9.15;4.35;;;11.00;64.90;;;;;;5088003;28;20723;-51
2022/09/21 05:25:06;;;;;;;6.50;4.30;;;11.00;65.10;;;;;;5081161;28;20048;-51
2022/09/21 05:27:33;;;;;;;7.03;3.83;;;11.00;65.20;;;;;;5089452;28;20044;-51
2022/09/21 05:30:00;;;;;;;5.03;3.80;;;11.00;65.20;;;;;;5089325;28;20048;-50
2022/09/21 05:32:32;;;;;;;7.03;3.60;;;11.00;65.30;;;;;;5090618;28;20032;-51
2022/09/21 05:35:11;;;;;;;5.55;3.85;;;11.00;65.20;;;;;;5079474;28;20045;-54
2022/09/21 05:37:58;;;;;;;5.38;4.28;;;11.00;65.50;;;;;;5080939;28;20052;-53
2022/09/21 05:40:25;;;;;;;4.20;3.80;;;11.00;65.80;;;;;;5090965;28;20508;-53
2022/09/21 05:42:55;;;;;;;7.45;5.10;;;11.00;65.30;;;;;;5078850;28;20323;-52
2022/09/21 05:45:22;;;;;;;5.25;4.75;;;11.00;65.50;;;;;;5084061;28;20571;-51
2022/09/21 05:48:14;;;;;;;7.60;5.68;;;11.00;65.60;;;;;;5091493;28;20130;-54
2022/09/21 05:51:11;;;;;;;7.85;4.82;;;11.00;66.50;;;;;;5077787;28;20040;-53
2022/09/21 05:53:52;;;;;;;8.32;4.75;;;11.10;66.70;;;;;;5077535;28;20075;-50
2022/09/21 05:56:33;;;;;;;6.18;4.90;;;11.10;66.10;;;;;;5089306;28;20047;-54
2022/09/21 05:59:12;;;;;;;8.57;5.40;;;11.10;66.70;;;;;;5091486;28;20044;-52
2022/09/21 06:02:05;;;;;;;6.90;5.40;;;11.20;66.80;;;;;;5082483;28;20048;-51
2022/09/21 06:04:32;;;;;;;;;;;11.20;67.10;;;;;;5072485;28;20040;-51
2022/09/21 06:06:58;;;;;;;4.82;4.32;;;11.30;66.90;;;;;;5084770;28;19926;-53
2022/09/21 06:09:26;;;;;;;6.47;4.70;;;11.30;66.00;;;;;;5091999;28;20048;-49
2022/09/21 06:11:53;;;;;;;10.25;6.55;;;11.30;66.20;;;;;;5091259;28;20059;-52
2022/09/21 06:14:24;;;;;;;7.85;5.60;;;11.40;66.40;;;;;;5081590;28;20162;-51
2022/09/21 06:16:51;;;;;;;6.18;5.32;;;11.40;66.50;;;;;;5089507;28;20050;-51
2022/09/21 06:19:18;;;;;;;5.60;4.95;;;11.40;66.60;;;;;;5084628;28;20496;-53
2022/09/21 06:21:45;;;;;;;7.55;5.35;;;11.40;66.60;;;;;;5081848;28;20040;-51
2022/09/21 06:24:13;;;;;;;8.32;5.38;;;11.50;66.70;;;;;;5089857;28;20069;-51
2022/09/21 06:26:40;;;;;;;6.57;5.22;;;11.50;66.80;;;;;;5091988;28;20415;-51
2022/09/21 06:29:07;;;;;;;6.13;4.85;;;11.60;66.90;;;;;;5085191;28;20411;-52
2022/09/21 06:31:34;;;;;;;5.45;4.78;;;11.60;67.00;;;;;;5070238;28;20482;-50
2022/09/21 06:34:01;;;;;;;6.93;4.82;;;11.60;67.10;;;;;;5078158;28;20064;-51
2022/09/21 06:36:31;;;;;;;7.10;5.25;;;11.70;67.10;;;;;;5089769;28;20040;-50
2022/09/21 06:38:57;;;;;;;6.38;4.72;;;11.70;67.20;;;;;;5087053;28;20079;-50
2022/09/21 06:41:24;;;;;;;5.88;4.75;;;11.80;67.40;;;;;;5083421;28;20072;-49
2022/09/21 06:43:55;;;;;;;5.70;5.20;;;11.80;67.40;;;;;;5083270;28;20040;-51
2022/09/21 06:46:22;;;;;;;7.40;5.38;;;11.90;67.70;;;;;;5099553;28;20043;-50
2022/09/21 06:48:49;;;;;;;6.13;5.45;;;11.90;67.60;;;;;;5086772;28;20048;-52
2022/09/21 06:51:16;;;;;;;6.22;5.63;;;12.00;67.70;;;;;;5090996;28;20059;-53
2022/09/21 06:53:42;;;;;;;6.03;5.15;;;12.10;67.90;;;;;;5087916;28;20408;-54
2022/09/21 06:56:09;;;;;;;5.60;4.95;;;12.10;68.00;;;;;;5091579;28;20044;-50
2022/09/21 06:58:37;;;;;;;8.63;5.50;;;12.20;68.10;;;;;;5085890;28;20040;-50
2022/09/21 07:01:08;;;;;;;8.40;6.18;;;12.30;68.20;;;;;;5082599;28;20044;-54
2022/09/21 07:03:35;;;;;;;9.60;6.03;;;12.40;68.50;;;;;;5092270;28;20043;-49
2022/09/21 07:06:02;;;;;;;7.22;5.65;;;12.40;68.10;;;;;;5085131;28;20032;-50
2022/09/21 07:08:29;;;;;;;8.38;6.28;;;12.50;68.20;;;;;;5080183;28;20463;-50
2022/09/21 07:11:16;;;;;;;7.03;6.10;;;12.60;68.30;;;;;;5077772;28;20067;-54
2022/09/21 07:13:44;;;;;;;7.00;5.53;;;12.70;68.20;;;;;;5097115;28;20499;-53
2022/09/21 07:16:11;;;;;;;7.85;6.47;;;12.80;68.30;;;;;;5093898;28;20055;-50
2022/09/21 07:18:41;;;;;;;6.93;6.22;;;12.90;68.30;;;;;;5084635;28;20044;-53
2022/09/21 07:21:10;;;;;;;6.83;6.23;;;12.90;68.40;;;;;;5075679;28;20060;-50
2022/09/21 07:23:37;;;;;;;9.18;6.10;;;13.00;68.20;;;;;;5087442;28;20044;-51
2022/09/21 07:26:09;;;;;;;5.97;5.38;;;13.10;68.10;;;;;;5091684;28;20044;-54
2022/09/21 07:28:37;;;;;;;7.60;5.80;;;13.20;68.40;;;;;;5082458;28;20054;-52
2022/09/21 07:31:14;;;;;;;10.23;5.65;;;13.30;68.10;;;;;;5077879;28;20039;-54
2022/09/21 07:33:43;;;;;;;8.35;6.35;;;13.30;68.60;;;;;;5092913;28;20040;-51
2022/09/21 07:36:11;;;;;;;8.50;6.63;;;13.30;68.10;;;;;;5083906;28;20032;-52
2022/09/21 07:38:42;;;;;;;8.05;6.13;;;13.40;68.20;;;;;;5091407;28;20423;-54
2022/09/21 07:41:12;;;;;;;7.95;6.82;;;13.50;68.50;;;;;;5090987;28;20051;-54
2022/09/21 07:43:39;;;;;;;6.45;5.57;;;13.60;68.40;;;;;;5088096;28;20064;-52
2022/09/21 07:46:11;;;;;;;8.85;6.30;;;13.60;68.30;;;;;;5084588;28;20085;-52
2022/09/21 07:48:38;;;;;;;8.25;6.57;;;13.70;68.40;;;;;;5073451;28;20115;-54
2022/09/21 07:51:07;;;;;;;7.93;6.25;;;13.70;68.40;;;;;;5088385;28;20036;-53
2022/09/21 07:53:39;;;;;;;9.63;7.13;;;13.70;68.60;;;;;;5082819;28;20075;-50
2022/09/21 07:56:08;;;;;;;8.73;7.65;;;13.80;68.90;;;;;;5082575;28;20047;-52
2022/09/21 08:01:22;;;;;;;16.80;9.50;;;14.00;68.90;;;;;;5084506;28;20124;-51
2022/09/21 08:03:51;;;;;;;9.60;8.52;;;14.00;68.70;;;;;;5083307;28;20048;-50
2022/09/21 08:06:18;;;;;;;11.40;8.55;;;14.00;68.60;;;;;;5072760;28;20032;-53
2022/09/21 08:08:46;;;;;;;10.82;9.35;;;14.10;68.60;;;;;;5084818;28;20492;-52
2022/09/21 08:11:15;;;;;;;11.00;9.25;;;14.10;68.50;;;;;;5092032;28;20041;-50
2022/09/21 08:13:42;;;;;;;10.27;9.13;;;14.20;68.40;;;;;;5081210;28;20040;-53
2022/09/21 08:16:09;;;;;;;10.50;9.43;;;14.20;68.20;;;;;;5085770;28;20051;-54
2022/09/21 08:18:37;;;;;;;14.05;10.02;;;14.20;68.10;;;;;;5086225;28;20037;-50
2022/09/21 08:21:06;;;;;;;11.93;9.93;;;14.30;68.20;;;;;;5080538;28;20071;-51
2022/09/21 08:23:39;;;;;;;12.18;10.48;;;14.20;68.10;;;;;;5090841;28;20058;-55
2022/09/21 08:26:06;;;;;;;11.38;10.18;;;14.20;68.30;;;;;;5082774;28;20054;-51
2022/09/21 08:28:35;;;;;;;12.90;10.13;;;14.30;68.20;;;;;;5087909;28;20110;-55
2022/09/21 08:31:04;;;;;;;11.82;9.55;;;14.30;68.40;;;;;;5090573;28;20064;-52
2022/09/21 08:33:31;;;;;;;14.15;10.13;;;14.30;68.60;;;;;;5079507;28;20382;-54
2022/09/21 08:35:59;;;;;;;12.15;9.55;;;14.30;68.60;;;;;;5072955;28;20098;-54
2022/09/21 08:38:32;;;;;;;14.05;10.35;;;14.30;68.70;;;;;;5089864;28;20036;-50
2022/09/21 08:41:01;;;;;;;13.90;9.65;;;14.30;68.80;;;;;;5083949;28;20042;-50
2022/09/21 08:43:33;;;;;;;11.75;9.85;;;14.30;68.50;;;;;;5087080;28;20496;-53
2022/09/21 08:46:02;;;;;;;14.98;9.05;;;14.30;68.80;;;;;;5089830;28;20035;-52
2022/09/21 08:48:33;;;;;;;10.57;9.30;;;14.30;68.30;;;;;;5097521;28;20044;-54
2022/09/21 08:51:10;;;;;;;11.70;8.65;;;14.40;68.60;;;;;;5079569;28;20501;-49
2022/09/21 08:53:40;;;;;;;14.98;9.18;;;14.40;68.90;;;;;;5071890;28;20588;-54
2022/09/21 08:56:12;;;;;;;12.68;9.65;;;14.40;69.60;;;;;;5087754;28;20063;-50
2022/09/21 08:58:40;;;;;;;13.43;9.48;;;14.40;69.20;;;;;;5081679;28;20035;-55
2022/09/21 09:01:18;;;;;;;12.52;8.88;;;14.50;69.20;;;;;;5072380;28;20054;-51
2022/09/21 09:03:48;;;;;;;11.95;8.80;;;14.50;69.20;;;;;;5078309;28;20054;-50
2022/09/21 09:06:30;;;;;;;13.07;9.25;;;14.50;69.20;;;;;;5087844;28;20058;-54
2022/09/21 09:09:12;;;;;;;8.98;7.50;;;14.60;69.50;;;;;;5084138;28;20106;-51
2022/09/21 09:12:04;;;;;;;8.75;7.25;;;14.60;69.40;;;;;;5083923;28;20048;-49
2022/09/21 09:14:53;;;;;;;8.63;6.70;;;14.70;69.10;;;;;;5080981;28;20413;-52
2022/09/21 09:17:44;;;;;;;12.07;6.72;;;14.80;69.20;;;;;;5088043;28;20107;-52
2022/09/21 09:20:29;;;;;;;10.82;7.15;;;14.80;69.30;;;;;;5074412;28;20036;-50
2022/09/21 09:23:05;;;;;;;11.02;7.13;;;14.90;69.60;;;;;;5082706;28;20537;-52
2022/09/21 09:25:38;;;;;;;10.57;7.10;;;14.90;69.30;;;;;;5090585;28;20223;-52
2022/09/21 09:28:22;;;;;;;10.68;7.22;;;15.00;69.40;;;;;;5086531;28;20060;-52
2022/09/21 09:30:58;;;;;;;9.85;6.18;;;15.10;69.30;;;;;;5085808;28;20554;-54
2022/09/21 09:33:48;;;;;;;7.88;5.80;;;15.10;68.80;;;;;;5088904;28;20072;-54
2022/09/21 09:36:16;;;;;;;10.85;5.40;;;15.20;68.50;;;;;;5093818;28;20059;-55
2022/09/21 09:38:57;;;;;;;8.85;6.20;;;15.30;68.30;;;;;;5084672;28;20047;-53
2022/09/21 09:41:44;;;;;;;10.15;5.68;;;15.30;68.70;;;;;;5084605;28;20433;-55
2022/09/21 09:44:17;;;;;;;8.57;6.35;;;15.40;68.30;;;;;;5084586;28;20423;-55
2022/09/21 09:47:02;;;;;;;7.53;5.13;;;15.50;67.90;;;;;;5083705;28;20036;-53
2022/09/21 09:49:33;;;;;;;7.13;5.55;;;15.50;67.80;;;;;;5070853;28;20050;-54
2022/09/21 09:52:00;;;;;;;11.38;6.68;;;15.60;67.60;;;;;;5078820;28;20032;-54
2022/09/21 09:54:32;;;;;;;6.63;5.40;;;15.60;67.60;;;;;;5089108;28;20060;-53
2022/09/21 09:57:02;;;;;;;6.97;5.35;;;15.70;67.30;;;;;;5082278;28;20051;-55
2022/09/21 09:59:38;;;;;;;7.32;4.82;;;15.80;66.90;;;;;;5090484;28;20071;-56
2022/09/21 10:02:22;;;;;;;6.38;4.88;;;15.90;66.40;;;;;;5092846;28;20036;-55
2022/09/21 10:05:04;;;;;;;6.95;4.68;;;15.90;65.80;;;;;;5092272;28;20036;-55
2022/09/21 10:07:40;;;;;;;9.02;4.47;;;16.00;66.10;;;;;;5066291;28;20049;-55
2022/09/21 10:10:31;;;;;;;5.70;4.40;;;16.10;66.00;;;;;;5063239;28;20045;-54
2022/09/21 10:13:12;;;;;;;7.82;4.07;;;16.20;65.30;;;;;;5078324;28;20037;-54
2022/09/21 10:15:44;;;;;;;7.30;3.60;;;16.30;65.40;;;;;;5062809;28;20043;-51
2022/09/21 10:18:16;;;;;;;5.32;2.65;;;16.40;64.70;;;;;;5072376;28;20031;-55
2022/09/21 10:20:55;;;;;;;5.25;3.10;;;16.50;64.40;;;;;;5083740;28;20699;-55
2022/09/21 10:23:22;;;;;;;3.03;2.35;;;16.70;63.60;;;;;;5084294;28;20127;-56
2022/09/21 10:25:59;;;;;;;5.55;3.20;;;16.80;63.40;;;;;;5067055;28;20041;-54
2022/09/21 10:28:27;;;;;;;3.60;2.28;;;16.90;61.60;;;;;;5076804;28;20561;-54
2022/09/21 10:31:29;;;;;;;6.35;3.25;;;17.00;62.50;;;;;;5079312;28;20036;-56
2022/09/21 10:34:13;;;;;;;4.80;3.88;;;17.30;62.40;;;;;;4983721;28;20042;-56
2022/09/21 10:36:41;;;;;;;4.38;3.13;;;17.30;62.20;;;;;;5074390;28;20416;-55
2022/09/21 10:39:21;;;;;;;6.63;3.00;;;17.40;62.10;;;;;;5088481;28;20024;-56
2022/09/21 10:41:59;;;;;;;3.67;2.90;;;17.60;61.30;;;;;;5095228;28;20123;-56
2022/09/21 10:44:37;;;;;;;4.28;2.45;;;17.70;60.90;;;;;;5081425;28;20037;-55
2022/09/21 10:47:16;;;;;;;6.18;2.35;;;17.80;60.80;;;;;;5080807;28;20059;-56
2022/09/21 10:49:47;;;;;;;3.60;2.65;;;18.00;59.80;;;;;;5088516;28;20135;-56
2022/09/21 10:52:13;;;;;;;5.28;3.60;;;18.10;60.80;;;;;;5092272;28;20052;-54
2022/09/21 10:54:43;;;;;;;4.65;2.40;;;18.30;60.70;;;;;;5090308;28;20079;-55
2022/09/21 10:57:16;;;;;;;5.35;2.15;;;18.50;60.30;;;;;;5094674;28;20047;-54
2022/09/21 10:59:43;;;;;;;4.90;2.30;;;18.70;59.80;;;;;;5086053;28;20036;-56
2022/09/21 11:02:28;;;;;;;4.10;2.47;;;18.80;59.60;;;;;;5075276;28;20420;-52
2022/09/21 11:05:14;;;;;;;6.45;2.88;;;19.00;58.20;;;;;;5085237;28;20497;-54
2022/09/21 11:07:43;;;;;;;4.22;2.30;;;19.20;59.20;;;;;;5096671;28;20036;-55
2022/09/21 11:10:41;;;;;;;3.63;1.80;;;19.40;57.90;;;;;;5096155;28;20052;-56
2022/09/21 11:13:07;;;;;;;2.03;1.17;;;19.60;56.50;;;;;;5086773;28;20044;-56
2022/09/21 11:15:50;;;;;;;4.00;1.38;;;19.70;56.80;;;;;;5078261;28;20404;-54
2022/09/21 11:18:34;;;;;;;5.30;2.42;;;19.90;54.50;;;;;;5090587;28;20071;-54
2022/09/21 11:21:12;;;;;;;2.85;1.20;;;20.10;54.10;;;;;;5082476;28;20039;-51
2022/09/21 11:23:54;;;;;;;5.38;1.40;;;20.20;53.90;;;;;;5090438;28;20064;-54
2022/09/21 11:26:28;;;;;;;5.57;2.10;;;20.40;53.20;;;;;;5094863;28;20394;-54
2022/09/21 11:29:09;;;;;;;4.07;1.90;;;20.50;53.60;;;;;;5096970;28;20072;-50
2022/09/21 11:31:55;;;;;;;2.85;1.50;;;20.50;52.70;;;;;;5079179;28;20052;-50
2022/09/21 11:34:32;;;;;;;4.35;1.30;;;20.60;52.90;;;;;;5083988;28;20400;-53
2022/09/21 11:37:09;;;;;;;2.35;1.30;;;20.70;52.20;;;;;;5093276;28;20115;-54
2022/09/21 11:39:59;;;;;;;3.08;1.20;;;20.70;51.60;;;;;;5084171;28;20568;-52
2022/09/21 11:42:45;;;;;;;3.58;1.05;;;20.70;51.00;;;;;;5076616;28;20504;-54
2022/09/21 11:45:47;;;;;;;2.45;0.90;;;20.80;51.60;;;;;;5081695;28;20078;-56
2022/09/21 11:48:35;;;;;;;1.85;0.63;;;20.90;50.00;;;;;;5087489;28;20067;-52
2022/09/21 11:51:38;;;;;;;1.75;0.50;;;20.90;51.10;;;;;;5078953;28;20044;-54
2022/09/21 11:54:48;;;;;;;1.48;1.05;;;20.90;48.40;;;;;;5081839;28;20070;-56
2022/09/21 11:57:34;;;;;;;1.75;0.82;;;20.90;48.80;;;;;;5080619;28;20789;-51
2022/09/21 12:00:08;;;;;;;1.58;0.98;;;20.90;48.50;;;;;;5080184;28;20723;-54
2022/09/21 12:02:44;;;;;;;2.28;1.17;;;20.90;49.10;;;;;;5082690;28;20036;-55
2022/09/21 12:05:25;;;;;;;3.50;1.00;;;20.90;49.50;;;;;;5092823;28;20044;-52
2022/09/21 12:07:55;;;;;;;1.85;1.13;;;20.80;49.00;;;;;;5083992;28;20384;-54
2022/09/21 12:11:11;;;;;;;1.88;1.40;;;20.80;49.30;;;;;;5090754;28;20048;-52
2022/09/21 12:13:43;;;;;;;3.65;1.10;;;20.90;49.00;;;;;;5057700;28;20059;-51
2022/09/21 12:16:34;;;;;;;5.60;1.30;;;21.00;49.60;;;;;;5091722;28;20047;-52
2022/09/21 12:19:10;;;;;;;2.90;1.20;;;21.10;49.40;;;;;;5075581;28;20120;-54
2022/09/21 12:21:46;;;;;;;4.00;1.23;;;21.20;49.90;;;;;;5077229;28;20695;-51
2022/09/21 12:24:50;;;;;;;3.38;1.42;;;21.30;49.60;;;;;;5092684;28;20044;-53
2022/09/21 12:27:49;;;;;;;2.90;1.10;;;21.40;49.80;;;;;;5086824;28;20726;-51
2022/09/21 12:30:19;;;;;;;2.55;1.95;;;21.50;49.80;;;;;;5049751;28;20515;-52
2022/09/21 12:33:05;;;;;;;3.95;1.40;;;21.50;49.20;;;;;;5094510;28;20044;-56
2022/09/21 12:35:58;;;;;;;3.88;2.05;;;21.60;48.30;;;;;;5080877;28;20102;-53
2022/09/21 12:38:35;;;;;;;5.20;1.63;;;21.70;48.00;;;;;;5076436;28;20404;-55
2022/09/21 12:41:52;;;;;;;1.13;0.90;;;21.70;48.20;;;;;;5079160;28;20119;-52
2022/09/21 12:44:32;;;;;;;3.30;1.00;;;21.80;48.00;;;;;;5051617;28;20213;-52
2022/09/21 12:47:10;;;;;;;3.22;1.40;;;21.80;46.90;;;;;;5078436;28;20051;-51
2022/09/21 12:49:47;;;;;;;3.15;1.20;;;21.90;48.10;;;;;;5071401;28;20056;-55
2022/09/21 12:52:21;;;;;;;3.20;1.20;;;21.90;47.10;;;;;;5089677;28;20118;-53
2022/09/21 12:54:58;;;;;;;3.40;1.50;;;21.90;46.50;;;;;;5085324;28;20519;-52
2022/09/21 12:57:48;;;;;;;1.73;1.17;;;21.90;46.50;;;;;;5073436;28;20028;-52
2022/09/21 13:00:46;;;;;;;4.50;1.13;;;21.90;46.50;;;;;;5087189;28;20047;-52
2022/09/21 13:03:23;;;;;;;5.07;1.30;;;21.90;46.60;;;;;;5081473;28;20119;-54
2022/09/21 13:06:08;;;;;;;1.73;1.00;;;21.80;46.20;;;;;;5079265;28;20071;-52
2022/09/21 13:08:40;;;;;;;2.75;1.20;;;21.80;46.30;;;;;;5084107;28;20044;-51
2022/09/21 13:11:08;;;;;;;1.07;0.70;;;21.80;46.40;;;;;;5093820;28;20040;-52
2022/09/21 13:13:52;;;;;;;2.75;0.90;;;21.80;46.50;;;;;;5090980;28;20028;-53
2022/09/21 13:16:32;;;;;;;2.28;1.00;;;21.80;45.70;;;;;;5069836;28;20045;-53
2022/09/21 13:19:11;;;;;;;1.77;0.98;;;21.70;45.80;;;;;;5076031;28;20065;-52
2022/09/21 13:21:43;;;;;;;1.92;0.60;;;21.70;46.10;;;;;;5085882;28;20825;-50
2022/09/21 13:24:26;;;;;;;2.35;0.90;;;21.70;46.60;;;;;;5088058;28;20050;-54
2022/09/21 13:26:58;;;;;;;4.38;1.33;;;21.80;45.50;;;;;;5089796;28;20123;-51